Containerships 6 — DABH — position and weather

sailwx.info

Track history (hours):
 
Tides and Currents Weather Stations Pressure Air Temp Water Temp Dewpoint Dewpoint Depression Visibility Wind Speed Wind Dir Waves Ship Positions

Containerships 6

Last reported at 2016-Dec-03 10:33 UTC. Time now 2016-Dec-04 18:25 UTC.
Position N 59°49' E 024°37'.

Length 155 m; beam 21.8 m; draft 8.9 m.

Type: Ship (hazmat cat A). MMSI: 211315096.

Date/timePositionNaut miles runAvg speedWind from/ knotsBaromVisibWave heightAir tempDewpointWater temp
2016-Dec-03 10:33N 59°49' E 024°37'1717.2
2016-Dec-03 09:34N 59°60' E 025°05'1313.3
2016-Dec-03 08:33N 60°13' E 025°12'0 0.0
2016-Dec-03 07:33N 60°13' E 025°12'0 0.0
2016-Dec-03 06:33N 60°13' E 025°12'0 0.0
2016-Dec-03 05:33N 60°13' E 025°12'0 0.0
2016-Dec-03 04:33N 60°13' E 025°12'0 0.0
2016-Dec-03 03:33N 60°13' E 025°12'0 0.0
2016-Dec-03 02:33N 60°13' E 025°12'0 0.0
2016-Dec-03 01:33N 60°13' E 025°12'0 0.0
2016-Dec-03 00:33N 60°13' E 025°12'0 0.0
2016-Dec-02 23:33N 60°13' E 025°12'0 0.0
2016-Dec-02 22:33N 60°13' E 025°12'0 0.0
2016-Dec-02 21:33N 60°13' E 025°12'0 0.0
2016-Dec-02 20:33N 60°13' E 025°12'0 0.0
2016-Dec-02 19:33N 60°13' E 025°12'0 0.0
2016-Dec-02 18:33N 60°13' E 025°12'0 0.0
2016-Dec-02 17:33N 60°13' E 025°12'31 2.1
2016-Dec-02 02:30N 59°60' E 026°09'1617.3
2016-Dec-02 01:34N 60°01' E 026°42'1616.2
2016-Dec-02 00:33N 60°03' E 027°14'1717.3
2016-Dec-01 23:33N 60°12' E 027°44'1717.2
2016-Dec-01 22:33N 60°08' E 028°18'1716.6
2016-Dec-01 21:33N 60°03' E 028°49'1717.2
2016-Dec-01 20:32N 60°02' E 029°24'9 9.4
2016-Dec-01 19:33N 59°60' E 029°42'1 0.6
2016-Dec-01 18:33N 60°00' E 029°43'0 0.0
2016-Dec-01 17:33N 60°00' E 029°43'0 0.0
2016-Dec-01 16:33N 60°00' E 029°43'0 0.0
2016-Dec-01 15:32N 60°00' E 029°43'0 0.0
2016-Dec-01 14:33N 60°00' E 029°43'0 0.0
2016-Dec-01 13:30N 60°00' E 029°43'0 0.0
2016-Dec-01 12:33N 60°00' E 029°43'0 0.0
2016-Dec-01 11:33N 60°00' E 029°43'0 0.0
2016-Dec-01 10:33N 60°00' E 029°43'0 0.0
2016-Dec-01 09:34N 60°00' E 029°43'0 0.0
2016-Dec-01 08:33N 60°00' E 029°43'0 0.0
2016-Dec-01 07:34N 60°00' E 029°43'0 0.0
2016-Dec-01 06:33N 60°00' E 029°43'0 0.0
2016-Dec-01 05:33N 60°00' E 029°43'3 3.1
2016-Dec-01 04:33N 60°00' E 029°37'1413.9
2016-Dec-01 03:33N 60°02' E 029°09'1818.2
2016-Dec-01 02:33N 60°02' E 028°33'1716.7
2016-Dec-01 01:33N 60°09' E 028°02'1515.1
2016-Dec-01 00:33N 60°07' E 027°32'2015.6
2016-Nov-30 23:16N 59°59' E 026°55'1115.9
2016-Nov-30 22:33N 59°59' E 026°32'49 5.5
2016-Nov-30 13:33N 59°51' E 024°55'1817.9
2016-Nov-30 12:33N 59°44' E 024°22'1918.6
2016-Nov-30 11:33N 59°38' E 023°47'1818.4
2016-Nov-30 10:33N 59°33' E 023°13'33117.9
2016-Nov-29 16:05N 55°44' E 015°47'1018.5
2016-Nov-29 15:34N 55°40' E 015°31'1918.7
2016-Nov-29 14:34N 55°32' E 015°02'1818.3
2016-Nov-29 13:34N 55°21' E 014°35'1818.1
2016-Nov-29 12:33N 55°07' E 014°16'1817.6
2016-Nov-29 11:33N 54°58' E 013°50'6917.0
2016-Nov-29 07:29N 54°25' E 012°04'1617.7
2016-Nov-29 06:33N 54°27' E 011°36'1818.3
2016-Nov-29 05:33N 54°35' E 011°08'1817.9
2016-Nov-29 04:33N 54°34' E 010°37'1515.5
2016-Nov-29 03:33N 54°26' E 010°14'5 5.2
2016-Nov-29 02:33N 54°22' E 010°09'5 5.4
2016-Nov-29 01:33N 54°21' E 009°59'7 7.4
2016-Nov-29 00:33N 54°21' E 009°47'3 3.0
2016-Nov-28 23:31N 54°19' E 009°43'11 5.4
2016-Nov-28 21:32N 54°11' E 009°31'7 6.9
2016-Nov-28 20:32N 54°08' E 009°20'7 6.5
2016-Nov-28 19:25N 54°01' E 009°18'7 8.0
2016-Nov-28 18:33N 53°55' E 009°12'2 2.4
2016-Nov-28 17:33N 53°54' E 009°09'2 1.9
2016-Nov-28 16:34N 53°53' E 009°06'1110.7
2016-Nov-28 15:33N 53°50' E 008°48'1312.6
2016-Nov-28 14:34N 53°58' E 008°31'1414.1
2016-Nov-28 13:33N 53°60' E 008°07'6917.2
2016-Nov-28 09:33N 53°43' E 006°14'1817.7
2016-Nov-28 08:33N 53°38' E 005°46'1818.1
2016-Nov-28 07:33N 53°31' E 005°17'3517.6
2016-Nov-28 05:33N 53°10' E 004°31'1918.6
2016-Nov-28 04:33N 52°53' E 004°17'1918.7
2016-Nov-28 03:33N 52°37' E 004°01'1918.5
2016-Nov-28 02:33N 52°20' E 003°52'1818.4
2016-Nov-28 01:33N 52°02' E 004°00'1313.4
2016-Nov-28 00:33N 51°54' E 004°18'5 4.7
2016-Nov-27 23:33N 51°53' E 004°25'0 0.0
2016-Nov-27 22:33N 51°53' E 004°25'0 0.0
2016-Nov-27 21:34N 51°53' E 004°25'0 0.0
2016-Nov-27 20:33N 51°53' E 004°25'0 0.0
2016-Nov-27 19:33N 51°53' E 004°25'0 0.0
2016-Nov-27 18:33N 51°53' E 004°25'0 0.0
2016-Nov-27 17:33N 51°53' E 004°25'0 0.0
2016-Nov-27 16:34N 51°53' E 004°25'0 0.0
2016-Nov-27 14:33N 51°53' E 004°25'0 0.0
2016-Nov-27 13:33N 51°53' E 004°25'0 0.0
2016-Nov-27 12:33N 51°53' E 004°25'0 0.0
2016-Nov-27 10:34N 51°53' E 004°25'0 0.0
2016-Nov-27 09:33N 51°53' E 004°25'0 0.0
2016-Nov-27 08:33N 51°53' E 004°25'0 0.0
2016-Nov-27 07:33N 51°53' E 004°25'0 0.0
2016-Nov-27 06:33N 51°53' E 004°25'0 0.0
2016-Nov-27 05:33N 51°53' E 004°25'0 0.0
2016-Nov-27 04:34N 51°53' E 004°25'3 2.5
2016-Nov-27 03:33N 51°54' E 004°21'1111.3
2016-Nov-27 02:34N 51°59' E 004°05'1918.9
2016-Nov-27 01:33N 52°06' E 003°36'1918.9
2016-Nov-27 00:33N 52°16' E 003°10'1918.9
2016-Nov-26 23:33N 52°27' E 002°45'1919.0
2016-Nov-26 22:33N 52°37' E 002°19'1919.1
2016-Nov-26 21:33N 52°48' E 001°53'1919.3
2016-Nov-26 20:33N 53°01' E 001°30'7719.4
2016-Nov-26 16:34N 54°04' E 000°13'2020.0
2016-Nov-26 15:33N 54°19' W 000°10'40 1.9
2016-Nov-25 19:11N 54°59' W 000°05'1219.1
2016-Nov-25 18:33N 55°04' E 000°13'2118.6
2016-Nov-25 17:24N 55°14' E 000°47'36316.6
2016-Nov-24 19:33N 57°48' E 010°42'1616.3
2016-Nov-24 18:33N 57°38' E 011°07'1717.0
2016-Nov-24 17:33N 57°26' E 011°29'1717.4
2016-Nov-24 16:33N 57°10' E 011°39'11215.9
2016-Nov-24 09:32N 55°20' E 011°03'1515.6
2016-Nov-24 08:33N 55°05' E 011°02'1515.4
2016-Nov-24 07:33N 54°50' E 010°53'1414.5
2016-Nov-24 06:33N 54°38' E 011°05'1717.5
2016-Nov-24 05:33N 54°30' E 011°32'1717.1
2016-Nov-24 04:33N 54°26' E 012°01'1514.9
2016-Nov-24 03:33N 54°38' E 012°16'1917.6
2016-Nov-24 02:30N 54°48' E 012°43'1717.4
2016-Nov-24 01:32N 54°54' E 013°11'1817.6
2016-Nov-24 00:31N 54°60' E 013°40'1717.3
2016-Nov-23 23:33N 55°06' E 014°07'1817.6
2016-Nov-23 22:33N 55°20' E 014°27'1616.5
2016-Nov-23 21:33N 55°26' E 014°54'1818.0
2016-Nov-23 20:33N 55°27' E 015°25'1818.0
2016-Nov-23 19:33N 55°27' E 015°57'1817.7
2016-Nov-23 18:31N 55°28' E 016°29'3717.9
2016-Nov-23 16:25N 55°30' E 017°35'3417.9
2016-Nov-23 14:33N 55°34' E 018°34'1917.7
2016-Nov-23 13:27N 55°37' E 019°08'  
Track history (hours):
 
Tides and Currents Weather Stations Pressure Air Temp Water Temp Dewpoint Dewpoint Depression Visibility Wind Speed Wind Dir Waves Ship Positions

Containerships 6

Last reported at 2016-Dec-03 10:33 UTC. Time now 2016-Dec-04 18:25 UTC.
Position N 59°49' E 024°37'.

Length 155 m; beam 21.8 m; draft 8.9 m.

Type: Ship (hazmat cat A). MMSI: 211315096.

Date/timePositionNaut miles runAvg speedWind from/ knotsBaromVisibWave heightAir tempDewpointWater temp
2016-Dec-03 10:33N 59°49' E 024°37'1717.2
2016-Dec-03 09:34N 59°60' E 025°05'1313.3
2016-Dec-03 08:33N 60°13' E 025°12'0 0.0
2016-Dec-03 07:33N 60°13' E 025°12'0 0.0
2016-Dec-03 06:33N 60°13' E 025°12'0 0.0
2016-Dec-03 05:33N 60°13' E 025°12'0 0.0
2016-Dec-03 04:33N 60°13' E 025°12'0 0.0
2016-Dec-03 03:33N 60°13' E 025°12'0 0.0
2016-Dec-03 02:33N 60°13' E 025°12'0 0.0
2016-Dec-03 01:33N 60°13' E 025°12'0 0.0
2016-Dec-03 00:33N 60°13' E 025°12'0 0.0
2016-Dec-02 23:33N 60°13' E 025°12'0 0.0
2016-Dec-02 22:33N 60°13' E 025°12'0 0.0
2016-Dec-02 21:33N 60°13' E 025°12'0 0.0
2016-Dec-02 20:33N 60°13' E 025°12'0 0.0
2016-Dec-02 19:33N 60°13' E 025°12'0 0.0
2016-Dec-02 18:33N 60°13' E 025°12'0 0.0
2016-Dec-02 17:33N 60°13' E 025°12'31 2.1
2016-Dec-02 02:30N 59°60' E 026°09'1617.3
2016-Dec-02 01:34N 60°01' E 026°42'1616.2
2016-Dec-02 00:33N 60°03' E 027°14'1717.3
2016-Dec-01 23:33N 60°12' E 027°44'1717.2
2016-Dec-01 22:33N 60°08' E 028°18'1716.6
2016-Dec-01 21:33N 60°03' E 028°49'1717.2
2016-Dec-01 20:32N 60°02' E 029°24'9 9.4
2016-Dec-01 19:33N 59°60' E 029°42'1 0.6
2016-Dec-01 18:33N 60°00' E 029°43'0 0.0
2016-Dec-01 17:33N 60°00' E 029°43'0 0.0
2016-Dec-01 16:33N 60°00' E 029°43'0 0.0
2016-Dec-01 15:32N 60°00' E 029°43'0 0.0
2016-Dec-01 14:33N 60°00' E 029°43'0 0.0
2016-Dec-01 13:30N 60°00' E 029°43'0 0.0
2016-Dec-01 12:33N 60°00' E 029°43'0 0.0
2016-Dec-01 11:33N 60°00' E 029°43'0 0.0
2016-Dec-01 10:33N 60°00' E 029°43'0 0.0
2016-Dec-01 09:34N 60°00' E 029°43'0 0.0
2016-Dec-01 08:33N 60°00' E 029°43'0 0.0
2016-Dec-01 07:34N 60°00' E 029°43'0 0.0
2016-Dec-01 06:33N 60°00' E 029°43'0 0.0
2016-Dec-01 05:33N 60°00' E 029°43'3 3.1
2016-Dec-01 04:33N 60°00' E 029°37'1413.9
2016-Dec-01 03:33N 60°02' E 029°09'1818.2
2016-Dec-01 02:33N 60°02' E 028°33'1716.7
2016-Dec-01 01:33N 60°09' E 028°02'1515.1
2016-Dec-01 00:33N 60°07' E 027°32'2015.6
2016-Nov-30 23:16N 59°59' E 026°55'1115.9
2016-Nov-30 22:33N 59°59' E 026°32'49 5.5
2016-Nov-30 13:33N 59°51' E 024°55'1817.9
2016-Nov-30 12:33N 59°44' E 024°22'1918.6
2016-Nov-30 11:33N 59°38' E 023°47'1818.4
2016-Nov-30 10:33N 59°33' E 023°13'33117.9
2016-Nov-29 16:05N 55°44' E 015°47'1018.5
2016-Nov-29 15:34N 55°40' E 015°31'1918.7
2016-Nov-29 14:34N 55°32' E 015°02'1818.3
2016-Nov-29 13:34N 55°21' E 014°35'1818.1
2016-Nov-29 12:33N 55°07' E 014°16'1817.6
2016-Nov-29 11:33N 54°58' E 013°50'6917.0
2016-Nov-29 07:29N 54°25' E 012°04'1617.7
2016-Nov-29 06:33N 54°27' E 011°36'1818.3
2016-Nov-29 05:33N 54°35' E 011°08'1817.9
2016-Nov-29 04:33N 54°34' E 010°37'1515.5
2016-Nov-29 03:33N 54°26' E 010°14'5 5.2
2016-Nov-29 02:33N 54°22' E 010°09'5 5.4
2016-Nov-29 01:33N 54°21' E 009°59'7 7.4
2016-Nov-29 00:33N 54°21' E 009°47'3 3.0
2016-Nov-28 23:31N 54°19' E 009°43'11 5.4
2016-Nov-28 21:32N 54°11' E 009°31'7 6.9
2016-Nov-28 20:32N 54°08' E 009°20'7 6.5
2016-Nov-28 19:25N 54°01' E 009°18'7 8.0
2016-Nov-28 18:33N 53°55' E 009°12'2 2.4
2016-Nov-28 17:33N 53°54' E 009°09'2 1.9
2016-Nov-28 16:34N 53°53' E 009°06'1110.7
2016-Nov-28 15:33N 53°50' E 008°48'1312.6
2016-Nov-28 14:34N 53°58' E 008°31'1414.1
2016-Nov-28 13:33N 53°60' E 008°07'6917.2
2016-Nov-28 09:33N 53°43' E 006°14'1817.7
2016-Nov-28 08:33N 53°38' E 005°46'1818.1
2016-Nov-28 07:33N 53°31' E 005°17'3517.6
2016-Nov-28 05:33N 53°10' E 004°31'1918.6
2016-Nov-28 04:33N 52°53' E 004°17'1918.7
2016-Nov-28 03:33N 52°37' E 004°01'1918.5
2016-Nov-28 02:33N 52°20' E 003°52'1818.4
2016-Nov-28 01:33N 52°02' E 004°00'1313.4
2016-Nov-28 00:33N 51°54' E 004°18'5 4.7
2016-Nov-27 23:33N 51°53' E 004°25'0 0.0
2016-Nov-27 22:33N 51°53' E 004°25'0 0.0
2016-Nov-27 21:34N 51°53' E 004°25'0 0.0
2016-Nov-27 20:33N 51°53' E 004°25'0 0.0
2016-Nov-27 19:33N 51°53' E 004°25'0 0.0
2016-Nov-27 18:33N 51°53' E 004°25'0 0.0
2016-Nov-27 17:33N 51°53' E 004°25'0 0.0
2016-Nov-27 16:34N 51°53' E 004°25'0 0.0
2016-Nov-27 14:33N 51°53' E 004°25'0 0.0
2016-Nov-27 13:33N 51°53' E 004°25'0 0.0
2016-Nov-27 12:33N 51°53' E 004°25'0 0.0
2016-Nov-27 10:34N 51°53' E 004°25'0 0.0
2016-Nov-27 09:33N 51°53' E 004°25'0 0.0
2016-Nov-27 08:33N 51°53' E 004°25'0 0.0
2016-Nov-27 07:33N 51°53' E 004°25'0 0.0
2016-Nov-27 06:33N 51°53' E 004°25'0 0.0
2016-Nov-27 05:33N 51°53' E 004°25'0 0.0
2016-Nov-27 04:34N 51°53' E 004°25'3 2.5
2016-Nov-27 03:33N 51°54' E 004°21'1111.3
2016-Nov-27 02:34N 51°59' E 004°05'1918.9
2016-Nov-27 01:33N 52°06' E 003°36'1918.9
2016-Nov-27 00:33N 52°16' E 003°10'1918.9
2016-Nov-26 23:33N 52°27' E 002°45'1919.0
2016-Nov-26 22:33N 52°37' E 002°19'1919.1
2016-Nov-26 21:33N 52°48' E 001°53'1919.3
2016-Nov-26 20:33N 53°01' E 001°30'7719.4
2016-Nov-26 16:34N 54°04' E 000°13'2020.0
2016-Nov-26 15:33N 54°19' W 000°10'40 1.9
2016-Nov-25 19:11N 54°59' W 000°05'1219.1
2016-Nov-25 18:33N 55°04' E 000°13'2118.6
2016-Nov-25 17:24N 55°14' E 000°47'36316.6
2016-Nov-24 19:33N 57°48' E 010°42'1616.3
2016-Nov-24 18:33N 57°38' E 011°07'1717.0
2016-Nov-24 17:33N 57°26' E 011°29'1717.4
2016-Nov-24 16:33N 57°10' E 011°39'11215.9
2016-Nov-24 09:32N 55°20' E 011°03'1515.6
2016-Nov-24 08:33N 55°05' E 011°02'1515.4
2016-Nov-24 07:33N 54°50' E 010°53'1414.5
2016-Nov-24 06:33N 54°38' E 011°05'1717.5
2016-Nov-24 05:33N 54°30' E 011°32'1717.1
2016-Nov-24 04:33N 54°26' E 012°01'1514.9
2016-Nov-24 03:33N 54°38' E 012°16'1917.6
2016-Nov-24 02:30N 54°48' E 012°43'1717.4
2016-Nov-24 01:32N 54°54' E 013°11'1817.6
2016-Nov-24 00:31N 54°60' E 013°40'1717.3
2016-Nov-23 23:33N 55°06' E 014°07'1817.6
2016-Nov-23 22:33N 55°20' E 014°27'1616.5
2016-Nov-23 21:33N 55°26' E 014°54'1818.0
2016-Nov-23 20:33N 55°27' E 015°25'1818.0
2016-Nov-23 19:33N 55°27' E 015°57'1817.7
2016-Nov-23 18:31N 55°28' E 016°29'3717.9
2016-Nov-23 16:25N 55°30' E 017°35'3417.9
2016-Nov-23 14:33N 55°34' E 018°34'1917.7
2016-Nov-23 13:27N 55°37' E 019°08'  

Dump ship's entire track history